Time;durP1;ratioP1;P1;durP2;ratioP2;P2;SDS_P1;SDS_P2;PMS_P1;PMS_P2;Temp;Humidity;BMP_temperature;BMP_pressure;BME280_temperature;BME280_humidity;BME280_pressure;Samples;Min_cycle;Max_cycle;Signal;HPM_P1;HPM_P2
2022/05/09 00:02:11;;;;;;;7.80;5.90;;;;;;;13.26;67.98;98713.77;104814;1289;24254;-81
2022/05/09 00:04:39;;;;;;;7.30;5.70;;;;;;;13.20;68.00;98718.11;104809;1289;22717;-81
2022/05/09 00:07:07;;;;;;;6.50;5.70;;;;;;;13.14;67.99;98720.64;104820;1288;25357;-81
2022/05/09 00:09:35;;;;;;;7.40;5.90;;;;;;;13.10;68.23;98723.80;104877;1290;22551;-82
2022/05/09 00:12:04;;;;;;;7.20;6.00;;;;;;;13.07;68.49;98722.54;104810;1289;24340;-81
2022/05/09 00:14:32;;;;;;;8.20;7.10;;;;;;;13.10;68.66;98720.60;104795;1288;25567;-80
2022/05/09 00:17:00;;;;;;;7.80;7.00;;;;;;;13.12;68.94;98720.36;104813;1288;25661;-81
2022/05/09 00:19:28;;;;;;;9.80;6.70;;;;;;;13.13;68.82;98721.04;104828;1290;24242;-81
2022/05/09 00:21:56;;;;;;;8.10;5.60;;;;;;;13.13;68.77;98719.35;104798;1288;25335;-81
2022/05/09 00:24:24;;;;;;;7.00;4.90;;;;;;;13.12;68.56;98722.67;104784;1288;22774;-81
2022/05/09 00:26:53;;;;;;;8.50;5.30;;;;;;;13.09;68.64;98718.56;104757;1290;24241;-81
2022/05/09 00:29:21;;;;;;;7.70;5.70;;;;;;;13.08;68.78;98722.09;104853;1288;22572;-82
2022/05/09 00:31:52;;;;;;;6.00;5.40;;;;;;;13.07;68.74;98720.65;104788;1288;23151;-81
2022/05/09 00:34:21;;;;;;;7.60;5.40;;;;;;;13.09;69.01;98720.84;104859;1288;23298;-82
2022/05/09 00:36:52;;;;;;;12.30;10.00;;;;;;;13.11;69.02;98722.90;104789;1288;25358;-82
2022/05/09 00:39:20;;;;;;;8.00;6.80;;;;;;;13.13;69.09;98724.19;104863;1288;22691;-80
2022/05/09 00:41:48;;;;;;;7.20;6.10;;;;;;;13.13;68.93;98726.66;104924;1288;22694;-81
2022/05/09 00:44:18;;;;;;;6.20;5.40;;;;;;;13.13;68.76;98727.63;104920;1288;23164;-81
2022/05/09 00:46:50;;;;;;;6.40;5.00;;;;;;;13.15;68.70;98726.31;104807;1288;22577;-82
2022/05/09 00:49:23;;;;;;;8.30;5.60;;;;;;;13.17;68.67;98730.61;104869;1289;22663;-80
2022/05/09 00:52:08;;;;;;;6.90;5.40;;;;;;;13.19;68.76;98729.75;104776;1288;24393;-81
2022/05/09 00:54:42;;;;;;;6.40;5.70;;;;;;;13.22;68.87;98729.56;104796;1288;24237;-81
2022/05/09 00:57:17;;;;;;;7.70;5.80;;;;;;;13.23;68.94;98731.77;104791;1288;25549;-82
2022/05/09 00:59:47;;;;;;;6.10;5.10;;;;;;;13.25;68.78;98736.02;104798;1288;22609;-80
2022/05/09 01:02:19;;;;;;;7.70;5.70;;;;;;;13.27;68.76;98738.34;104901;1288;25433;-81
2022/05/09 01:04:52;;;;;;;6.40;4.90;;;;;;;13.26;68.55;98735.95;104778;1288;23318;-81
2022/05/09 01:07:22;;;;;;;6.90;4.70;;;;;;;13.24;68.52;98738.80;104808;1288;22578;-82
2022/05/09 01:09:51;;;;;;;6.50;4.90;;;;;;;13.24;68.36;98739.34;104804;1288;22635;-80
2022/05/09 01:12:29;;;;;;;6.30;4.50;;;;;;;13.22;68.33;98743.63;104756;1288;22575;-81
2022/05/09 01:15:00;;;;;;;4.50;4.10;;;;;;;13.19;68.37;98741.77;104815;1289;25559;-81
2022/05/09 01:17:28;;;;;;;6.70;4.10;;;;;;;13.20;68.30;98741.66;104777;1288;22722;-81
2022/05/09 01:20:00;;;;;;;8.20;4.60;;;;;;;13.22;68.16;98742.71;104754;1288;22728;-82
2022/05/09 01:22:36;;;;;;;6.00;5.00;;;;;;;13.23;68.16;98741.88;104871;1288;22722;-82
2022/05/09 01:25:08;;;;;;;6.70;5.10;;;;;;;13.22;68.12;98741.30;105115;1288;25313;-81
2022/05/09 01:27:40;;;;;;;7.70;4.50;;;;;;;13.18;68.15;98744.60;104806;1288;22718;-81
2022/05/09 01:30:11;;;;;;;5.70;4.90;;;;;;;13.15;68.13;98749.75;104841;1288;22894;-83
2022/05/09 01:33:12;;;;;;;6.10;5.00;;;;;;;13.08;68.11;98750.60;104883;1288;22620;-81
2022/05/09 01:35:57;;;;;;;7.40;4.60;;;;;;;13.03;68.19;98748.58;104664;1290;22964;-81
2022/05/09 01:38:38;;;;;;;7.40;6.40;;;;;;;13.01;68.42;98744.23;104685;1290;22595;-81
2022/05/09 01:41:06;;;;;;;6.80;5.40;;;;;;;13.03;68.39;98740.84;104701;1290;23614;-81
2022/05/09 01:43:35;;;;;;;9.60;5.60;;;;;;;13.05;68.29;98737.82;104531;1291;22598;-82
2022/05/09 01:46:07;;;;;;;9.00;6.00;;;;;;;13.12;68.43;98745.30;104711;1290;22737;-81
2022/05/09 01:51:22;;;;;;;8.30;5.80;;;;;;;13.08;68.19;98754.95;104643;1291;25236;-82
2022/05/09 01:53:52;;;;;;;8.60;6.20;;;;;;;13.02;68.27;98754.55;104612;1291;22640;-82
2022/05/09 01:56:26;;;;;;;6.90;6.10;;;;;;;13.00;68.47;98751.92;104841;1290;24457;-82
2022/05/09 01:58:55;;;;;;;;;;;;;;;12.98;68.27;98747.64;104754;1290;23206;-82
2022/05/09 02:01:28;;;;;;;6.70;6.00;;;;;;;12.95;68.46;98747.02;104733;1291;25387;-82
2022/05/09 02:03:57;;;;;;;6.60;5.30;;;;;;;12.94;68.28;98747.14;104767;1291;25540;-81
2022/05/09 02:06:25;;;;;;;7.10;5.90;;;;;;;12.95;68.39;98743.88;104744;1288;22577;-81
2022/05/09 02:08:53;;;;;;;6.70;5.90;;;;;;;12.98;68.26;98742.82;104823;1289;25390;-81
2022/05/09 02:11:20;;;;;;;7.10;5.10;;;;;;;13.02;68.44;98740.48;104791;1288;22621;-81
2022/05/09 02:13:48;;;;;;;7.60;5.30;;;;;;;13.07;68.62;98738.02;104832;1288;22683;-82
2022/05/09 02:16:16;;;;;;;6.30;5.40;;;;;;;13.09;68.57;98739.67;104834;1288;22620;-82
2022/05/09 02:18:44;;;;;;;8.00;6.00;;;;;;;13.10;68.41;98740.24;104813;1288;24103;-82
2022/05/09 02:21:12;;;;;;;8.60;6.20;;;;;;;13.10;68.47;98745.71;104842;1289;22566;-82
2022/05/09 02:23:40;;;;;;;7.10;6.40;;;;;;;13.09;68.33;98746.05;104819;1288;23647;-81
2022/05/09 02:26:09;;;;;;;37.40;34.20;;;;;;;13.06;68.35;98753.23;104858;1290;22741;-81
2022/05/09 02:28:37;;;;;;;10.60;9.50;;;;;;;13.01;68.32;98751.97;104864;1288;22585;-81
2022/05/09 02:31:06;;;;;;;8.00;6.10;;;;;;;12.98;68.39;98752.05;104872;1289;22878;-81
2022/05/09 02:33:33;;;;;;;7.20;5.10;;;;;;;12.97;68.22;98756.73;104887;1289;25387;-81
2022/05/09 02:36:01;;;;;;;6.00;5.00;;;;;;;12.99;68.36;98755.55;104870;1288;25513;-81
2022/05/09 02:38:29;;;;;;;8.60;4.80;;;;;;;12.96;68.16;98762.81;106691;1288;26520;-82
2022/05/09 02:40:57;;;;;;;10.70;5.20;;;;;;;12.91;68.10;98765.91;106217;1288;22589;-81
2022/05/09 02:43:25;;;;;;;8.60;7.50;;;;;;;12.85;68.33;98769.09;105090;1288;22633;-81
2022/05/09 02:46:01;;;;;;;9.80;8.20;;;;;;;12.79;68.13;98768.18;104916;1288;23234;-80
2022/05/09 02:48:31;;;;;;;9.00;7.10;;;;;;;12.75;68.37;98768.23;104695;1288;24430;-80
2022/05/09 02:50:59;;;;;;;9.90;6.90;;;;;;;12.72;68.23;98767.08;104966;1288;25265;-81
2022/05/09 02:53:27;;;;;;;8.50;7.00;;;;;;;12.68;68.11;98769.41;104860;1288;22636;-81
2022/05/09 02:55:55;;;;;;;8.90;7.00;;;;;;;12.64;68.42;98770.34;104828;1288;24455;-81
2022/05/09 02:58:23;;;;;;;9.90;7.70;;;;;;;12.62;68.33;98772.89;104825;1288;22557;-81
2022/05/09 03:00:51;;;;;;;12.40;6.80;;;;;;;12.61;68.31;98771.56;104819;1288;22696;-80
2022/05/09 03:06:05;;;;;;;11.70;7.80;;;;;;;12.53;68.27;98773.56;104965;1290;24353;-82
2022/05/09 03:08:35;;;;;;;11.30;7.70;;;;;;;12.48;68.30;98771.02;104950;1288;22567;-84
2022/05/09 03:11:03;;;;;;;9.60;8.10;;;;;;;12.42;68.23;98769.73;104913;1288;22551;-81
2022/05/09 03:13:31;;;;;;;10.10;7.20;;;;;;;12.38;68.62;98769.91;104907;1288;24445;-81
2022/05/09 03:16:00;;;;;;;8.40;7.50;;;;;;;12.32;68.47;98771.43;104818;1289;22745;-81
2022/05/09 03:18:28;;;;;;;11.00;7.40;;;;;;;12.30;68.79;98769.34;104813;1288;22534;-81
2022/05/09 03:20:56;;;;;;;9.10;6.60;;;;;;;12.31;68.64;98773.56;104837;1288;24277;-81
2022/05/09 03:23:24;;;;;;;9.00;6.90;;;;;;;12.31;68.81;98772.52;104785;1288;22637;-82
2022/05/09 03:25:52;;;;;;;8.10;6.40;;;;;;;12.33;68.71;98774.99;104789;1288;22745;-81
2022/05/09 03:28:26;;;;;;;8.70;7.60;;;;;;;12.32;68.66;98777.59;104750;1288;24236;-82
2022/05/09 03:30:57;;;;;;;10.10;7.80;;;;;;;12.32;68.56;98782.94;104777;1288;22572;-86
2022/05/09 03:33:27;;;;;;;9.40;6.30;;;;;;;12.33;68.64;98785.69;104940;1288;24363;-82
2022/05/09 03:35:59;;;;;;;10.90;6.70;;;;;;;12.36;68.67;98786.15;104825;1288;24220;-81
2022/05/09 03:38:27;;;;;;;8.70;6.50;;;;;;;12.37;68.69;98789.22;105179;1288;22580;-81
2022/05/09 03:40:55;;;;;;;9.50;6.50;;;;;;;12.37;68.62;98791.64;104892;1290;24269;-82
2022/05/09 03:43:24;;;;;;;6.70;5.80;;;;;;;12.40;68.61;98796.64;104920;1288;24314;-84
2022/05/09 03:45:52;;;;;;;7.60;6.80;;;;;;;12.45;68.68;98800.79;105032;1288;22662;-81
2022/05/09 03:48:20;;;;;;;8.90;7.00;;;;;;;12.50;68.52;98805.45;104985;1288;22732;-81
2022/05/09 03:50:48;;;;;;;11.30;7.80;;;;;;;12.53;68.62;98807.95;105007;1288;22569;-82
2022/05/09 03:53:16;;;;;;;9.40;8.50;;;;;;;12.57;68.72;98809.36;104858;1288;22609;-82
2022/05/09 03:55:44;;;;;;;10.10;8.90;;;;;;;12.58;68.77;98812.63;104909;1288;24560;-82
2022/05/09 03:58:14;;;;;;;11.30;7.40;;;;;;;12.59;68.61;98813.49;104906;1288;24468;-81
2022/05/09 04:00:43;;;;;;;11.00;9.90;;;;;;;12.59;68.66;98814.52;104920;1288;22577;-82
2022/05/09 04:03:12;;;;;;;10.40;8.10;;;;;;;12.56;68.64;98814.29;104773;1289;22919;-82
2022/05/09 04:05:41;;;;;;;10.60;7.60;;;;;;;12.53;68.67;98814.70;104750;1288;23101;-82
2022/05/09 04:08:16;;;;;;;7.80;6.20;;;;;;;12.53;68.83;98815.24;104739;1288;24241;-80
2022/05/09 04:10:45;;;;;;;;;;;;;;;12.57;68.74;98820.34;104762;1287;23164;-81
2022/05/09 04:13:14;;;;;;;12.10;6.50;;;;;;;12.57;68.99;98818.60;104798;1288;23236;-81
2022/05/09 04:18:37;;;;;;;7.80;6.90;;;;;;;12.56;69.07;98817.42;104878;1288;27747;-81
2022/05/09 04:21:07;;;;;;;10.50;7.10;;;;;;;12.58;69.28;98822.58;104916;1288;22655;-81
2022/05/09 04:23:36;;;;;;;11.00;7.30;;;;;;;12.62;69.15;98822.15;104938;1288;22582;-83
2022/05/09 04:26:05;;;;;;;10.00;6.90;;;;;;;12.67;69.28;98824.75;105038;1288;24134;-81
2022/05/09 04:28:33;;;;;;;7.90;6.70;;;;;;;12.71;69.14;98829.77;105146;1288;22837;-81
2022/05/09 04:31:02;;;;;;;10.60;8.10;;;;;;;12.78;69.30;98827.52;105184;1288;22551;-81
2022/05/09 04:33:30;;;;;;;10.20;8.50;;;;;;;12.85;69.26;98833.61;104995;1288;22630;-81
2022/05/09 04:36:04;;;;;;;11.10;8.10;;;;;;;12.89;69.19;98833.83;105057;1288;25505;-83
2022/05/09 04:38:32;;;;;;;11.40;7.70;;;;;;;12.95;69.58;98829.95;105083;1288;22655;-81
2022/05/09 04:41:02;;;;;;;14.30;10.20;;;;;;;13.00;69.34;98830.70;104941;1288;24404;-82
2022/05/09 04:43:31;;;;;;;10.70;9.10;;;;;;;13.04;69.52;98837.20;105254;1288;24269;-81
2022/05/09 04:46:01;;;;;;;11.80;7.90;;;;;;;13.07;69.56;98837.59;104994;1288;25552;-83
2022/05/09 04:48:29;;;;;;;9.80;8.60;;;;;;;13.10;69.42;98841.83;104985;1288;22567;-84
2022/05/09 04:50:58;;;;;;;9.10;7.50;;;;;;;13.14;69.32;98842.57;105002;1288;22679;-82
2022/05/09 04:53:27;;;;;;;7.80;6.40;;;;;;;13.18;69.32;98845.27;105025;1288;23824;-80
2022/05/09 04:55:56;;;;;;;13.90;8.20;;;;;;;13.23;69.39;98847.71;105469;1287;22483;-81
2022/05/09 04:58:27;;;;;;;12.00;7.90;;;;;;;13.25;69.33;98848.02;104926;1288;24340;-81
2022/05/09 05:00:55;;;;;;;13.00;8.60;;;;;;;13.27;69.36;98852.88;105099;1288;22659;-82
2022/05/09 05:03:25;;;;;;;9.90;8.60;;;;;;;13.28;69.24;98847.77;105031;1288;25388;-84
2022/05/09 05:05:53;;;;;;;9.60;7.90;;;;;;;13.25;69.15;98851.54;104935;1288;22573;-85
2022/05/09 05:08:22;;;;;;;9.80;8.10;;;;;;;13.22;69.02;98853.40;104881;1288;25443;-81
2022/05/09 05:10:53;;;;;;;11.50;8.10;;;;;;;13.19;69.13;98854.02;104876;1288;25526;-81
2022/05/09 05:13:26;;;;;;;8.90;7.20;;;;;;;13.24;69.29;98854.95;104936;1288;22778;-81
2022/05/09 05:15:55;;;;;;;14.20;12.50;;;;;;;13.30;69.14;98857.80;104895;1288;22706;-82
2022/05/09 05:18:26;;;;;;;11.70;10.50;;;;;;;13.39;69.23;98857.17;104988;1287;25489;-81
2022/05/09 05:20:55;;;;;;;10.20;8.50;;;;;;;13.50;69.44;98858.04;105082;1288;22572;-81
2022/05/09 05:23:23;;;;;;;13.50;8.50;;;;;;;13.59;69.34;98859.38;104949;1288;22714;-81
2022/05/09 05:25:52;;;;;;;14.00;9.90;;;;;;;13.64;69.13;98858.92;104964;1288;22658;-81
2022/05/09 05:28:20;;;;;;;13.00;9.20;;;;;;;13.73;69.26;98863.05;104905;1288;22797;-82
2022/05/09 05:30:49;;;;;;;11.50;9.40;;;;;;;13.82;69.21;98862.25;104927;1288;25556;-82
2022/05/09 05:33:17;;;;;;;15.40;9.90;;;;;;;13.93;69.09;98859.63;104907;1288;22730;-81
2022/05/09 05:35:45;;;;;;;17.20;9.20;;;;;;;14.04;68.93;98862.59;104890;1288;26628;-82
2022/05/09 05:38:13;;;;;;;16.10;10.70;;;;;;;14.12;68.84;98867.98;104992;1288;22656;-82
2022/05/09 05:40:41;;;;;;;10.90;8.70;;;;;;;14.19;68.69;98869.27;104978;1288;25400;-82
2022/05/09 05:43:14;;;;;;;14.70;13.20;;;;;;;14.26;68.49;98870.11;104884;1288;22586;-81
2022/05/09 05:45:46;;;;;;;10.00;8.70;;;;;;;14.29;68.28;98870.71;104924;1288;22594;-82
2022/05/09 05:48:14;;;;;;;8.40;6.80;;;;;;;14.33;68.07;98874.02;104803;1288;23083;-82
2022/05/09 05:50:42;;;;;;;8.10;7.00;;;;;;;14.38;68.12;98875.27;104767;1288;25674;-82
2022/05/09 05:53:10;;;;;;;10.90;7.20;;;;;;;14.46;68.03;98872.61;105011;1288;22772;-81
2022/05/09 05:55:38;;;;;;;10.00;8.00;;;;;;;14.56;68.18;98870.34;104921;1288;22723;-83
2022/05/09 05:58:07;;;;;;;11.40;7.50;;;;;;;14.66;67.76;98874.59;104965;1288;22595;-80
2022/05/09 06:00:36;;;;;;;9.90;7.30;;;;;;;14.76;67.51;98874.45;104770;1288;24298;-83
2022/05/09 06:03:04;;;;;;;7.80;6.60;;;;;;;14.85;67.25;98877.47;104974;1288;25489;-80
2022/05/09 06:05:32;;;;;;;9.40;5.90;;;;;;;14.91;67.04;98876.33;104970;1288;24970;-81
2022/05/09 06:07:59;;;;;;;10.00;7.90;;;;;;;14.98;66.65;98879.75;104829;1288;23235;-81
2022/05/09 06:10:30;;;;;;;7.50;6.00;;;;;;;15.06;66.31;98888.44;104854;1288;24314;-83
2022/05/09 06:13:01;;;;;;;8.80;7.00;;;;;;;15.13;66.33;98884.27;104756;1288;24252;-81
2022/05/09 06:15:32;;;;;;;8.50;7.40;;;;;;;15.23;65.99;98886.73;104865;1288;22771;-80
2022/05/09 06:18:04;;;;;;;8.00;4.90;;;;;;;15.32;65.74;98884.30;104957;1288;23967;-81
2022/05/09 06:20:34;;;;;;;7.60;4.80;;;;;;;15.41;65.40;98884.70;104786;1288;22783;-82
2022/05/09 06:23:04;;;;;;;7.80;5.20;;;;;;;15.50;65.03;98886.88;104982;1288;24155;-83
2022/05/09 06:25:36;;;;;;;8.40;5.30;;;;;;;15.59;65.06;98884.34;105209;1288;22569;-83
2022/05/09 06:28:06;;;;;;;6.80;5.20;;;;;;;15.70;64.83;98885.17;104977;1288;22579;-83
2022/05/09 06:30:35;;;;;;;7.60;5.90;;;;;;;15.85;64.63;98886.95;104957;1288;25348;-82
2022/05/09 06:33:03;;;;;;;7.60;4.70;;;;;;;15.96;64.09;98885.76;105063;1288;26815;-82
2022/05/09 06:35:41;;;;;;;8.20;5.30;;;;;;;16.04;63.60;98886.60;104900;1288;25328;-82
2022/05/09 06:38:14;;;;;;;10.20;4.90;;;;;;;16.15;63.31;98886.80;104819;1288;22563;-82
2022/05/09 06:40:43;;;;;;;7.50;5.10;;;;;;;16.25;63.27;98896.23;104825;1288;22704;-82
2022/05/09 06:43:12;;;;;;;7.90;4.80;;;;;;;16.37;63.07;98896.45;104763;1289;26712;-82
2022/05/09 06:45:41;;;;;;;9.30;4.60;;;;;;;16.46;62.60;98896.60;104818;1288;22681;-81
2022/05/09 06:48:10;;;;;;;10.00;4.70;;;;;;;16.57;62.51;98895.77;104821;1288;22566;-82
2022/05/09 06:50:39;;;;;;;13.10;5.70;;;;;;;16.69;62.29;98891.84;104914;1288;22706;-83
2022/05/09 06:53:08;;;;;;;8.10;5.60;;;;;;;16.80;61.77;98887.70;104881;1288;22576;-83
2022/05/09 06:55:45;;;;;;;9.80;5.30;;;;;;;16.92;61.69;98895.02;104997;1288;22572;-83
2022/05/09 06:58:17;;;;;;;9.20;5.40;;;;;;;17.00;61.30;98889.90;104816;1288;22639;-81
2022/05/09 07:00:45;;;;;;;8.00;5.10;;;;;;;17.06;60.94;98890.56;104965;1288;25316;-81
2022/05/09 07:03:14;;;;;;;7.70;5.60;;;;;;;17.14;60.72;98891.86;105073;1288;22686;-82
2022/05/09 07:05:44;;;;;;;8.60;5.20;;;;;;;17.12;59.98;98895.66;104900;1291;22577;-81
2022/05/09 07:08:13;;;;;;;7.40;5.00;;;;;;;17.04;59.93;98897.70;105051;1288;24403;-82
2022/05/09 07:10:42;;;;;;;8.70;4.40;;;;;;;16.92;57.63;98896.09;104915;1288;26639;-82
2022/05/09 07:13:12;;;;;;;9.20;4.70;;;;;;;16.80;58.10;98897.27;104932;1288;22583;-83
2022/05/09 07:15:39;;;;;;;8.90;4.90;;;;;;;16.79;57.67;98900.04;104871;1288;22606;-82
2022/05/09 07:18:08;;;;;;;6.40;4.20;;;;;;;16.82;57.95;98897.34;104937;1288;25284;-82
2022/05/09 07:20:38;;;;;;;7.50;3.90;;;;;;;16.86;57.51;98897.72;105015;1288;23109;-83
2022/05/09 07:23:10;;;;;;;6.90;4.20;;;;;;;16.90;57.22;98898.42;104857;1289;22632;-82
2022/05/09 07:25:38;;;;;;;8.60;3.90;;;;;;;16.94;57.06;98901.02;104960;1288;24453;-83
2022/05/09 07:28:07;;;;;;;9.60;5.60;;;;;;;17.03;56.86;98901.69;104862;1288;24391;-81
2022/05/09 07:30:35;;;;;;;7.10;4.70;;;;;;;17.09;56.32;98904.40;104880;1288;25543;-81
2022/05/09 07:33:03;;;;;;;6.60;4.70;;;;;;;17.14;53.31;98908.77;104868;1288;24454;-82
2022/05/09 07:35:32;;;;;;;8.60;4.70;;;;;;;17.19;54.12;98908.69;104876;1288;22630;-82
2022/05/09 07:38:00;;;;;;;7.00;3.90;;;;;;;17.32;55.36;98908.13;104910;1288;22644;-82
2022/05/09 07:40:35;;;;;;;8.00;4.20;;;;;;;17.47;54.91;98899.45;104932;1288;22578;-82
2022/05/09 07:43:14;;;;;;;5.90;4.00;;;;;;;17.54;53.94;98901.77;104852;1288;22775;-82
2022/05/09 07:45:43;;;;;;;6.60;4.00;;;;;;;17.58;53.32;98904.52;104901;1288;22679;-82
2022/05/09 07:48:12;;;;;;;8.30;4.00;;;;;;;17.68;53.86;98907.42;104876;1288;25247;-82
2022/05/09 07:50:41;;;;;;;7.60;4.20;;;;;;;17.76;53.96;98905.66;104916;1288;25266;-82
2022/05/09 07:53:25;;;;;;;6.30;3.70;;;;;;;17.78;53.10;98905.16;104858;1288;22716;-82
2022/05/09 07:55:54;;;;;;;10.40;7.40;;;;;;;17.64;51.26;98906.39;104876;1290;22577;-82
2022/05/09 07:58:23;;;;;;;13.30;9.10;;;;;;;17.49;50.16;98906.61;105012;1288;23294;-82
2022/05/09 08:00:53;;;;;;;9.90;6.30;;;;;;;17.36;48.16;98911.33;104896;1288;22625;-83
2022/05/09 08:03:22;;;;;;;12.50;4.80;;;;;;;17.33;49.59;98910.34;105032;1287;22903;-80
2022/05/09 08:05:59;;;;;;;7.80;3.50;;;;;;;17.39;49.32;98914.20;105231;1288;22802;-81
2022/05/09 08:08:30;;;;;;;8.90;4.90;;;;;;;17.36;48.48;98916.63;105018;1288;25639;-83
2022/05/09 08:11:00;;;;;;;7.20;4.10;;;;;;;17.36;49.15;98914.67;104956;1288;24369;-81
2022/05/09 08:13:33;;;;;;;6.80;3.70;;;;;;;17.47;49.25;98914.34;104904;1288;22575;-82
2022/05/09 08:16:04;;;;;;;8.40;4.00;;;;;;;17.57;49.00;98911.80;104856;1288;22584;-82
2022/05/09 08:18:33;;;;;;;8.70;3.80;;;;;;;17.72;49.36;98912.52;104914;1289;22574;-82
2022/05/09 08:21:02;;;;;;;8.10;3.70;;;;;;;17.96;49.82;98909.61;104845;1289;22547;-81
2022/05/09 08:23:31;;;;;;;7.70;4.50;;;;;;;18.07;47.32;98916.85;104995;1288;22627;-82
2022/05/09 08:26:03;;;;;;;6.70;4.20;;;;;;;18.00;48.40;98912.38;104953;1288;24426;-83
2022/05/09 08:28:31;;;;;;;8.80;4.40;;;;;;;17.94;48.77;98919.23;105184;1288;24300;-83
2022/05/09 08:31:02;;;;;;;6.80;4.50;;;;;;;17.94;47.54;98914.33;105000;1288;23142;-81
2022/05/09 08:33:30;;;;;;;8.50;4.50;;;;;;;17.91;47.79;98915.96;104980;1288;24696;-83
2022/05/09 08:35:58;;;;;;;8.50;4.60;;;;;;;17.85;47.18;98920.48;104889;1289;22581;-81
2022/05/09 08:38:26;;;;;;;8.10;4.30;;;;;;;17.84;47.59;98916.10;104610;1288;23621;-82
2022/05/09 08:41:16;;;;;;;9.80;4.50;;;;;;;17.96;48.12;98914.99;104892;1288;22559;-82
2022/05/09 08:43:59;;;;;;;7.10;4.00;;;;;;;18.10;48.68;98916.17;104943;1288;22543;-82
2022/05/09 08:46:44;;;;;;;8.70;5.60;;;;;;;18.23;48.49;98918.93;104985;1288;22670;-82
2022/05/09 08:49:34;;;;;;;9.40;5.60;;;;;;;18.25;47.80;98923.98;104781;1289;22695;-81
2022/05/09 08:52:20;;;;;;;7.40;4.20;;;;;;;18.16;46.52;98925.36;104970;1289;22573;-82
2022/05/09 08:54:50;;;;;;;9.20;3.90;;;;;;;18.06;47.57;98923.97;104860;1288;22684;-82
2022/05/09 08:57:42;;;;;;;6.80;4.00;;;;;;;18.12;47.72;98925.52;104666;1289;22875;-82
2022/05/09 09:00:15;;;;;;;6.30;4.10;;;;;;;18.26;47.79;98924.94;105001;1288;25549;-82
2022/05/09 09:03:15;;;;;;;9.00;3.90;;;;;;;18.48;47.82;98923.81;104962;1288;25380;-82
2022/05/09 09:05:46;;;;;;;8.90;3.90;;;;;;;18.85;47.72;98922.55;104789;1288;22769;-83
2022/05/09 09:08:37;;;;;;;6.50;4.10;;;;;;;19.14;46.97;98915.54;104875;1288;25372;-82
2022/05/09 09:11:25;;;;;;;6.50;3.30;;;;;;;19.41;46.98;98914.00;104972;1288;22810;-82
2022/05/09 09:14:01;;;;;;;8.70;4.00;;;;;;;19.70;46.42;98916.05;105013;1288;22722;-82
2022/05/09 09:16:49;;;;;;;10.30;4.60;;;;;;;19.85;46.39;98916.61;104927;1288;25292;-81
2022/05/09 09:19:31;;;;;;;7.80;4.30;;;;;;;20.14;46.48;98914.41;104977;1288;23602;-80
2022/05/09 09:22:15;;;;;;;6.40;3.60;;;;;;;20.42;45.47;98915.01;105190;1288;22731;-83
2022/05/09 09:25:01;;;;;;;7.20;3.50;;;;;;;20.61;45.46;98916.94;105234;1288;25412;-81
2022/05/09 09:27:35;;;;;;;8.10;3.70;;;;;;;20.68;44.80;98917.08;105562;1288;24243;-81
2022/05/09 09:30:10;;;;;;;;;;;;;;;20.68;44.17;98920.91;105365;1289;24325;-82
2022/05/09 09:32:41;;;;;;;6.90;3.60;;;;;;;20.65;44.97;98927.23;105209;1288;22576;-82
2022/05/09 09:35:32;;;;;;;7.20;4.00;;;;;;;20.69;43.88;98930.73;104991;1290;22730;-83
2022/05/09 09:38:45;;;;;;;9.10;4.30;;;;;;;20.20;41.54;98921.46;104980;1288;22503;-82
2022/05/09 09:41:28;;;;;;;9.00;4.20;;;;;;;19.78;42.10;98922.30;105035;1288;22714;-82
2022/05/09 09:44:13;;;;;;;8.20;3.80;;;;;;;19.50;40.52;98930.91;105075;1288;26018;-81
2022/05/09 09:47:00;;;;;;;9.00;4.50;;;;;;;19.13;41.41;98927.61;106494;1288;22708;-83
2022/05/09 09:49:29;;;;;;;7.60;4.10;;;;;;;18.94;41.19;98925.70;105115;1288;25392;-83
2022/05/09 09:51:57;;;;;;;8.80;4.00;;;;;;;18.92;42.37;98927.79;105223;1289;22578;-82
2022/05/09 09:54:29;;;;;;;10.20;4.80;;;;;;;18.90;42.58;98926.52;105054;1290;24251;-83
2022/05/09 09:57:20;;;;;;;8.30;4.50;;;;;;;18.97;42.62;98928.83;105266;1288;25498;-81
2022/05/09 09:59:49;;;;;;;8.80;4.60;;;;;;;18.99;42.58;98925.56;105103;1288;22599;-82
2022/05/09 10:02:24;;;;;;;7.30;4.50;;;;;;;19.08;42.59;98916.85;104860;1291;22704;-81
2022/05/09 10:04:57;;;;;;;6.50;4.10;;;;;;;19.25;42.91;98914.27;105060;1288;22721;-82
2022/05/09 10:07:34;;;;;;;9.10;4.10;;;;;;;19.44;42.73;98914.37;105064;1288;24459;-83
2022/05/09 10:10:18;;;;;;;8.10;3.40;;;;;;;19.58;42.62;98909.47;105031;1288;22610;-82
2022/05/09 10:12:54;;;;;;;7.10;4.00;;;;;;;19.61;41.69;98918.42;104989;1288;24246;-82
2022/05/09 10:15:30;;;;;;;10.80;4.40;;;;;;;19.53;41.11;98916.10;104988;1288;24442;-82
2022/05/09 10:17:59;;;;;;;8.20;4.10;;;;;;;19.57;41.20;98912.25;104746;1288;190057;-82
2022/05/09 10:20:41;;;;;;;7.30;3.80;;;;;;;19.76;41.56;98911.73;104872;1288;22590;-81
2022/05/09 10:26:13;;;;;;;8.80;4.40;;;;;;;20.22;41.69;98908.61;104788;1288;22709;-81
2022/05/09 10:28:45;;;;;;;;;;;;;;;20.36;41.27;98908.55;104865;1288;23030;-82
2022/05/09 10:31:37;;;;;;;8.50;4.00;;;;;;;20.52;41.26;98905.27;104969;1288;23952;-81
2022/05/09 10:34:25;;;;;;;7.50;4.00;;;;;;;20.76;41.43;98903.58;104874;1288;24130;-82
2022/05/09 10:37:05;;;;;;;7.40;3.90;;;;;;;21.01;40.33;98900.55;104894;1288;24211;-81
2022/05/09 10:39:39;;;;;;;8.30;3.90;;;;;;;21.13;40.15;98896.35;104843;1288;24239;-81
2022/05/09 10:42:10;;;;;;;8.00;3.70;;;;;;;21.16;40.33;98893.47;104812;1288;23385;-81
2022/05/09 10:44:53;;;;;;;7.80;4.00;;;;;;;21.28;40.42;98892.84;104895;1288;22787;-84
2022/05/09 10:47:56;;;;;;;7.10;3.60;;;;;;;21.41;39.36;98897.64;108078;1288;22603;-80
2022/05/09 10:50:27;;;;;;;7.10;3.80;;;;;;;21.53;39.49;98897.28;107588;1293;22641;-82
2022/05/09 10:53:03;;;;;;;10.30;5.00;;;;;;;21.23;36.82;98896.13;106837;1294;25381;-82
2022/05/09 10:55:38;;;;;;;7.20;3.70;;;;;;;20.89;37.51;98897.89;105207;1294;24655;-82
2022/05/09 10:58:24;;;;;;;16.10;10.30;;;;;;;20.48;37.34;98899.52;105794;1294;22699;-82
2022/05/09 11:00:57;;;;;;;12.30;7.90;;;;;;;20.15;37.77;98896.57;105722;1294;22551;-82
2022/05/09 11:03:27;;;;;;;10.70;6.70;;;;;;;19.98;38.19;98893.16;104892;1294;24350;-82
2022/05/09 11:06:33;;;;;;;9.10;5.00;;;;;;;19.83;38.54;98891.53;104281;1294;25560;-83
2022/05/09 11:09:36;;;;;;;8.50;4.30;;;;;;;19.66;38.89;98885.92;104077;1294;25444;-82
2022/05/09 11:12:16;;;;;;;8.40;3.80;;;;;;;19.75;39.32;98880.85;104347;1294;22694;-82
2022/05/09 11:15:05;;;;;;;8.80;3.90;;;;;;;20.09;39.30;98874.61;104234;1294;22761;-82
2022/05/09 11:18:08;;;;;;;8.00;4.00;;;;;;;20.50;39.15;98871.25;104336;1297;22589;-81
2022/05/09 11:20:49;;;;;;;9.20;3.90;;;;;;;20.96;39.15;98870.00;104138;1295;22646;-82
2022/05/09 11:23:38;;;;;;;9.30;3.90;;;;;;;21.29;38.92;98866.25;104291;1294;22643;-83
2022/05/09 11:26:14;;;;;;;7.90;4.20;;;;;;;21.72;38.26;98871.89;104669;1294;22558;-82
2022/05/09 11:29:00;;;;;;;8.60;3.80;;;;;;;21.75;38.17;98868.39;104814;1288;24237;-83
2022/05/09 11:31:28;;;;;;;8.60;3.80;;;;;;;21.56;35.40;98868.07;104850;1288;24396;-83
2022/05/09 11:34:10;;;;;;;7.30;4.10;;;;;;;21.02;36.13;98866.36;104904;1289;26640;-82
2022/05/09 11:36:48;;;;;;;8.30;4.40;;;;;;;20.63;36.46;98862.30;104909;1288;24071;-82
2022/05/09 11:39:21;;;;;;;7.90;4.40;;;;;;;20.49;37.28;98862.85;104898;1288;22604;-82
2022/05/09 11:45:29;;;;;;;8.10;4.00;;;;;;;20.44;38.08;98859.55;104731;1288;23256;-82
2022/05/09 11:48:29;;;;;;;6.60;3.50;;;;;;;20.68;38.13;98856.99;104978;1288;22937;-82
2022/05/09 11:51:15;;;;;;;7.90;3.70;;;;;;;21.11;38.23;98852.85;104894;1288;25330;-82
2022/05/09 11:53:49;;;;;;;8.50;4.00;;;;;;;21.50;37.62;98853.65;104841;1288;22733;-82
2022/05/09 11:56:17;;;;;;;;;;;;;;;21.81;37.67;98849.88;104805;1288;22724;-82
2022/05/09 11:58:46;;;;;;;6.90;4.00;;;;;;;22.16;37.32;98846.67;104944;1288;24446;-82
2022/05/09 12:01:14;;;;;;;7.60;3.80;;;;;;;22.51;37.12;98843.42;104728;1288;25379;-83
2022/05/09 12:03:42;;;;;;;10.40;3.80;;;;;;;22.85;36.97;98841.70;104847;1288;24321;-82
2022/05/09 12:06:36;;;;;;;8.20;5.80;;;;;;;22.96;36.07;98844.96;104782;1288;22590;-82